Ulan Bator, Mongolia
Current Conditions -  °F | °C
As of 1:00 PM on Sunday 26 Oct 2014 (Local Time) from ZMUB Reporting Station
Broken Clouds Broken Clouds  
Wind Chill: 31°   Ceiling: 10000
Heat Index: 39°   Visibility: 6mi
Dew Point: -2°   Wind: 16mph
Humidity: 17%   Direction: 150°SSE
Pressure: 30.36"   Gusts: NA
Location:  47.92°N, 106.91°E
Report Text: ZMUB 260500Z 15007MPS 9999 FEW033 BKN100 04/M19 Q1028 NOSIG RMK QFE662.4 17 MOP
Loading
Personal Weather Stations






























Interactive Weather Map New forecast layout! Learn more

10-Day Weather Forecast

Advertisements
Track Severe Weather on mobile